Cruger, Mississippi
Current Conditions -  °F | °C
As of 11:53 AM on Thursday 27 Nov 2014 (Local Time) from KGWO Reporting Station
Broken Clouds Broken Clouds  
Wind Chill: 39°   Ceiling: 3100
Heat Index: 44°   Visibility: 10mi
Dew Point: 29°   Wind: 9mph
Humidity: 55%   Direction: 340°NNW
Pressure: 30.51"   Gusts: 16mph
Location:  33.32°N, 90.23°W
Report Text: KGWO 271753Z AUTO 34008G14KT 10SM BKN031 07/M02 A3051 RMK AO2 SLP331 T00671017 10078 20022 58001 TSNO
Loading
Personal Weather Stations






























Interactive Weather Map New forecast layout! Learn more

10-Day Weather Forecast

Advertisements
Track Severe Weather on mobile